createdAt,value
2018-07-05T00:00:08.152Z,17.27
2018-07-05T00:02:48.232Z,17.26
2018-07-05T00:05:28.365Z,17.26
2018-07-05T00:08:08.468Z,17.22
2018-07-05T00:10:48.675Z,17.21
2018-07-05T00:13:28.737Z,17.22
2018-07-05T00:16:08.827Z,17.22
2018-07-05T00:18:50.153Z,17.24
2018-07-05T00:21:30.381Z,17.21
2018-07-05T00:24:10.816Z,17.17
2018-07-05T00:26:50.493Z,17.07
2018-07-05T00:29:30.371Z,17.00
2018-07-05T00:32:10.340Z,16.96
2018-07-05T00:34:50.930Z,16.96
2018-07-05T00:37:30.847Z,16.96
2018-07-05T00:40:10.714Z,16.94
2018-07-05T00:42:50.643Z,16.93
2018-07-05T00:45:30.657Z,16.90
2018-07-05T00:48:10.520Z,16.87
2018-07-05T00:50:50.265Z,16.87
2018-07-05T00:53:30.737Z,16.84
2018-07-05T00:56:10.793Z,16.83
2018-07-05T00:58:50.642Z,16.82
2018-07-05T01:01:30.679Z,16.83
2018-07-05T01:04:10.877Z,16.83
2018-07-05T01:06:50.688Z,16.80
2018-07-05T01:09:30.473Z,16.74
2018-07-05T01:12:18.116Z,16.72
2018-07-05T01:14:58.131Z,16.69
2018-07-05T01:17:38.417Z,16.67
2018-07-05T01:20:18.226Z,16.59
2018-07-05T01:23:00.831Z,16.56
2018-07-05T01:25:40.956Z,16.55
2018-07-05T01:28:21.217Z,16.53
2018-07-05T01:31:01.409Z,16.49
2018-07-05T01:33:41.706Z,16.45
2018-07-05T01:36:22.149Z,16.43
2018-07-05T01:39:02.632Z,16.39
2018-07-05T01:41:42.912Z,16.33
2018-07-05T01:44:22.952Z,16.32
2018-07-05T01:47:02.935Z,16.29
2018-07-05T01:49:43.124Z,16.23
2018-07-05T01:52:23.176Z,16.18
2018-07-05T01:55:03.146Z,16.15
2018-07-05T01:57:43.177Z,16.14
2018-07-05T02:00:23.057Z,16.09
2018-07-05T02:03:02.979Z,16.11
2018-07-05T02:05:42.799Z,16.10
2018-07-05T02:08:22.879Z,16.11
2018-07-05T02:11:02.891Z,16.11
2018-07-05T02:13:42.764Z,16.14
2018-07-05T02:16:22.642Z,16.13
2018-07-05T02:19:02.815Z,16.15
2018-07-05T02:21:42.675Z,16.13
2018-07-05T02:24:22.787Z,16.12
2018-07-05T02:27:02.768Z,16.09
2018-07-05T02:29:42.592Z,16.03
2018-07-05T02:32:22.679Z,15.99
2018-07-05T02:35:02.565Z,15.95
2018-07-05T02:37:47.706Z,15.94
2018-07-05T02:40:27.823Z,15.91
2018-07-05T02:43:07.948Z,15.90
2018-07-05T02:45:48.013Z,15.89
2018-07-05T02:48:28.363Z,15.88
2018-07-05T02:51:08.547Z,15.89
2018-07-05T02:53:48.764Z,15.92
2018-07-05T02:56:28.514Z,15.91
2018-07-05T02:59:08.466Z,15.91
2018-07-05T03:01:48.436Z,15.91
2018-07-05T03:04:28.507Z,15.89
2018-07-05T03:07:09.193Z,15.87
2018-07-05T03:09:49.318Z,15.69
2018-07-05T03:12:29.227Z,15.45
2018-07-05T03:15:09.509Z,15.38
2018-07-05T03:17:49.411Z,15.36
2018-07-05T03:20:29.480Z,15.32
2018-07-05T03:23:09.685Z,15.31
2018-07-05T03:25:49.965Z,15.29
2018-07-05T03:28:29.752Z,15.22
2018-07-05T03:31:09.921Z,15.18
2018-07-05T03:33:50.078Z,15.18
2018-07-05T03:36:30.118Z,15.12
2018-07-05T03:39:10.108Z,15.00
2018-07-05T03:41:50.286Z,14.76
2018-07-05T03:44:30.274Z,14.70
2018-07-05T03:47:10.394Z,14.74
2018-07-05T03:49:50.236Z,14.78
2018-07-05T03:52:30.150Z,14.76
2018-07-05T03:55:10.023Z,14.75
2018-07-05T03:57:50.004Z,14.75
2018-07-05T04:00:29.727Z,14.78
2018-07-05T04:03:14.497Z,14.80
2018-07-05T04:05:54.603Z,14.84
2018-07-05T04:08:34.728Z,14.87
2018-07-05T04:11:14.552Z,14.94
2018-07-05T04:13:54.391Z,14.98
2018-07-05T04:16:34.252Z,15.03
2018-07-05T04:19:14.721Z,15.07
2018-07-05T04:21:54.667Z,15.10
2018-07-05T04:24:34.602Z,15.14
2018-07-05T04:27:14.394Z,15.12
2018-07-05T04:29:54.234Z,15.12
2018-07-05T04:32:34.245Z,15.12
2018-07-05T04:35:14.170Z,15.14
2018-07-05T04:37:54.032Z,15.14
2018-07-05T04:40:34.127Z,15.09
2018-07-05T04:43:14.205Z,15.06
2018-07-05T04:45:53.927Z,15.07
2018-07-05T04:48:34.428Z,15.10
2018-07-05T04:51:14.360Z,15.17
2018-07-05T04:53:54.537Z,15.25
2018-07-05T04:56:34.395Z,15.33
2018-07-05T04:59:14.376Z,15.39
2018-07-05T05:01:54.211Z,15.45
2018-07-05T05:04:34.341Z,15.44
2018-07-05T05:07:14.217Z,15.45
2018-07-05T05:09:54.038Z,15.51
2018-07-05T05:12:33.803Z,15.53
2018-07-05T05:15:13.623Z,15.58
2018-07-05T05:17:53.625Z,15.63
2018-07-05T05:20:33.732Z,15.68
2018-07-05T05:23:14.192Z,15.78
2018-07-05T05:25:54.239Z,15.86
2018-07-05T05:28:34.483Z,15.94
2018-07-05T05:31:14.418Z,16.02
2018-07-05T05:33:54.534Z,16.11
2018-07-05T05:36:34.782Z,16.21
2018-07-05T05:39:14.678Z,16.28
2018-07-05T05:41:54.998Z,16.35
2018-07-05T05:44:34.742Z,16.46
2018-07-05T05:47:14.936Z,16.58
2018-07-05T05:49:55.142Z,16.71
2018-07-05T05:52:35.167Z,16.81
2018-07-05T05:55:15.382Z,16.92
2018-07-05T05:57:55.624Z,17.01
2018-07-05T06:00:36.336Z,17.09
2018-07-05T06:03:16.548Z,17.17
2018-07-05T06:05:56.778Z,17.31
2018-07-05T06:08:36.840Z,17.49
2018-07-05T06:11:17.055Z,17.56
2018-07-05T06:13:57.146Z,17.65
2018-07-05T06:16:37.545Z,17.82
2018-07-05T06:19:17.917Z,17.99
2018-07-05T06:21:57.824Z,18.12
2018-07-05T06:24:37.792Z,18.24
2018-07-05T06:27:17.756Z,18.31
2018-07-05T06:29:57.970Z,18.36
2018-07-05T06:32:37.948Z,18.43
2018-07-05T06:35:18.366Z,18.41
2018-07-05T06:37:58.549Z,18.49
2018-07-05T06:40:38.788Z,18.59
2018-07-05T06:43:18.794Z,18.80
2018-07-05T06:45:58.745Z,18.95
2018-07-05T06:48:38.653Z,18.99
2018-07-05T06:51:18.572Z,19.06
2018-07-05T06:53:58.782Z,19.14
2018-07-05T06:56:38.852Z,19.26
2018-07-05T06:59:19.115Z,19.24
2018-07-05T07:01:59.322Z,19.21
2018-07-05T07:04:39.567Z,19.07
2018-07-05T07:07:19.419Z,18.96
2018-07-05T07:09:59.267Z,19.04
2018-07-05T07:12:39.336Z,19.20
2018-07-05T07:15:19.540Z,19.28
2018-07-05T07:17:59.532Z,19.36
2018-07-05T07:20:39.568Z,19.54
2018-07-05T07:23:19.498Z,19.74
2018-07-05T07:25:59.465Z,19.97
2018-07-05T07:28:39.474Z,20.14
2018-07-05T07:31:19.426Z,20.27
2018-07-05T07:33:59.248Z,20.49
2018-07-05T07:36:39.187Z,20.74
2018-07-05T07:39:19.088Z,20.95
2018-07-05T07:41:49.020Z,20.94
2018-07-05T07:44:17.846Z,20.83
2018-07-05T07:46:45.849Z,20.79
2018-07-05T07:49:13.668Z,20.90
2018-07-05T07:51:41.530Z,21.10
2018-07-05T07:54:09.246Z,21.28
2018-07-05T07:56:36.980Z,21.48
2018-07-05T07:59:04.415Z,21.68
2018-07-05T08:01:31.865Z,21.87
2018-07-05T08:03:59.314Z,21.69
2018-07-05T08:06:27.030Z,21.40
2018-07-05T08:08:54.679Z,21.23
2018-07-05T08:11:22.350Z,21.08
2018-07-05T08:13:50.148Z,21.22
2018-07-05T08:16:17.630Z,21.40
2018-07-05T08:18:45.023Z,21.59
2018-07-05T08:21:12.705Z,21.87
2018-07-05T08:23:41.342Z,21.93
2018-07-05T08:26:08.766Z,22.12
2018-07-05T08:28:36.874Z,22.25
2018-07-05T08:31:04.307Z,22.27
2018-07-05T08:33:31.795Z,22.35
2018-07-05T08:35:59.285Z,22.41
2018-07-05T08:38:26.770Z,22.57
2018-07-05T08:40:54.250Z,22.77
2018-07-05T08:43:21.937Z,22.92
2018-07-05T08:45:49.767Z,23.00
2018-07-05T08:48:17.222Z,23.04
2018-07-05T08:50:45.095Z,22.99
2018-07-05T08:53:12.844Z,23.10
2018-07-05T08:55:40.313Z,23.15
2018-07-05T08:58:07.827Z,23.17
2018-07-05T09:00:35.632Z,23.22
2018-07-05T09:03:03.590Z,23.21
2018-07-05T09:05:31.332Z,23.35
2018-07-05T09:07:58.999Z,23.51
2018-07-05T09:10:26.407Z,23.53
2018-07-05T09:12:54.267Z,23.58
2018-07-05T09:15:21.687Z,23.60
2018-07-05T09:17:49.909Z,23.69
2018-07-05T09:20:17.155Z,23.80
2018-07-05T09:22:44.577Z,23.92
2018-07-05T09:25:12.361Z,23.76
2018-07-05T09:27:39.782Z,23.71
2018-07-05T09:30:07.448Z,23.82
2018-07-05T09:32:35.226Z,23.94
2018-07-05T09:35:02.680Z,24.04
2018-07-05T09:37:30.436Z,24.05
2018-07-05T09:39:58.288Z,24.09
2018-07-05T09:42:26.160Z,24.13
2018-07-05T09:44:53.938Z,24.26
2018-07-05T09:47:21.790Z,24.20
2018-07-05T09:49:49.574Z,24.33
2018-07-05T09:52:17.255Z,24.22
2018-07-05T09:54:45.084Z,24.22
2018-07-05T09:57:12.531Z,24.29
2018-07-05T09:59:40.200Z,24.11
2018-07-05T10:02:07.801Z,24.26
2018-07-05T10:04:35.626Z,24.49
2018-07-05T10:07:03.721Z,24.76
2018-07-05T10:09:31.199Z,24.91
2018-07-05T10:11:58.625Z,24.97
2018-07-05T10:14:26.139Z,24.84
2018-07-05T10:16:53.843Z,24.85
2018-07-05T10:19:21.622Z,25.02
2018-07-05T10:21:49.095Z,25.29
2018-07-05T10:24:16.588Z,25.33
2018-07-05T10:26:44.100Z,24.73
2018-07-05T10:29:23.782Z,24.82
2018-07-05T10:32:04.389Z,24.83
2018-07-05T10:34:32.141Z,25.12
2018-07-05T10:37:00.050Z,25.38
2018-07-05T10:39:27.458Z,25.48
2018-07-05T10:42:07.729Z,25.57
2018-07-05T10:44:47.474Z,25.40
2018-07-05T10:47:27.478Z,25.59
2018-07-05T10:50:07.742Z,25.85
2018-07-05T10:52:47.576Z,25.83
2018-07-05T10:55:27.603Z,25.30
2018-07-05T10:58:07.637Z,25.45
2018-07-05T11:00:48.089Z,25.60
2018-07-05T11:03:28.028Z,25.72
2018-07-05T11:06:07.687Z,25.80
2018-07-05T11:08:48.046Z,25.91
2018-07-05T11:11:28.055Z,25.39
2018-07-05T11:14:07.962Z,25.57
2018-07-05T11:16:48.320Z,25.79
2018-07-05T11:19:28.036Z,25.78
2018-07-05T11:22:07.951Z,25.88
2018-07-05T11:24:48.153Z,26.21
2018-07-05T11:27:27.997Z,25.86
2018-07-05T11:30:08.209Z,25.94
2018-07-05T11:32:50.481Z,26.00
2018-07-05T11:35:30.566Z,25.86
2018-07-05T11:38:10.493Z,25.92
2018-07-05T11:40:50.599Z,25.62
2018-07-05T11:43:30.438Z,25.17
2018-07-05T11:46:10.347Z,24.97
2018-07-05T11:48:50.205Z,25.29
2018-07-05T11:51:30.939Z,25.35
2018-07-05T11:54:11.055Z,25.07
2018-07-05T11:56:51.262Z,25.18
2018-07-05T11:59:31.644Z,25.24
2018-07-05T12:02:11.944Z,25.71
2018-07-05T12:04:52.184Z,26.23
2018-07-05T12:07:32.423Z,26.51
2018-07-05T12:10:12.373Z,26.53
2018-07-05T12:12:52.607Z,26.34
2018-07-05T12:15:32.661Z,26.24
2018-07-05T12:18:13.076Z,25.94
2018-07-05T12:20:52.822Z,25.49
2018-07-05T12:23:33.108Z,25.18
2018-07-05T12:26:12.763Z,25.13
2018-07-05T12:28:53.404Z,24.91
2018-07-05T12:31:33.695Z,24.88
2018-07-05T12:34:13.552Z,24.57
2018-07-05T12:36:53.443Z,24.52
2018-07-05T12:39:33.289Z,24.57
2018-07-05T12:42:14.124Z,24.52
2018-07-05T12:44:54.321Z,24.34
2018-07-05T12:47:34.139Z,24.31
2018-07-05T12:50:13.918Z,24.25
2018-07-05T12:52:53.939Z,24.33
2018-07-05T12:55:34.367Z,24.46
2018-07-05T12:58:14.188Z,24.47
2018-07-05T13:00:54.422Z,24.40
2018-07-05T13:03:34.539Z,24.34
2018-07-05T13:06:14.690Z,24.33
2018-07-05T13:08:54.645Z,24.37
2018-07-05T13:11:34.851Z,24.73
2018-07-05T13:14:14.835Z,24.92
2018-07-05T13:16:54.743Z,25.02
2018-07-05T13:19:34.670Z,24.89
2018-07-05T13:22:15.547Z,24.43
2018-07-05T13:24:55.565Z,24.37
2018-07-05T13:27:35.400Z,24.04
2018-07-05T13:30:15.432Z,24.07
2018-07-05T13:32:55.327Z,24.43
2018-07-05T13:35:35.257Z,24.90
2018-07-05T13:38:15.164Z,25.28
2018-07-05T13:40:55.126Z,25.57
2018-07-05T13:43:35.040Z,25.36
2018-07-05T13:46:14.935Z,25.37
2018-07-05T13:48:54.852Z,25.42
2018-07-05T13:51:34.697Z,25.30
2018-07-05T13:54:14.528Z,24.97
2018-07-05T13:56:54.676Z,24.86
2018-07-05T13:59:34.781Z,24.54
2018-07-05T14:02:15.071Z,24.52
2018-07-05T14:04:54.838Z,24.52
2018-07-05T14:07:34.592Z,24.58
2018-07-05T14:10:14.873Z,24.62
2018-07-05T14:12:55.902Z,24.66
2018-07-05T14:15:35.561Z,24.72
2018-07-05T14:18:15.372Z,24.91
2018-07-05T14:20:55.423Z,25.32
2018-07-05T14:23:35.302Z,25.82
2018-07-05T14:26:15.096Z,26.15
2018-07-05T14:28:55.011Z,26.60
2018-07-05T14:31:34.970Z,26.88
2018-07-05T14:34:14.704Z,26.72
2018-07-05T14:36:55.058Z,26.56
2018-07-05T14:39:34.866Z,26.51
2018-07-05T14:42:14.964Z,26.19
2018-07-05T14:44:54.868Z,26.06
2018-07-05T14:47:34.663Z,26.18
2018-07-05T14:50:14.569Z,26.17
2018-07-05T14:52:54.903Z,26.13
2018-07-05T14:55:34.862Z,26.42
2018-07-05T14:58:15.024Z,26.42
2018-07-05T15:00:55.122Z,26.19
2018-07-05T15:03:35.229Z,26.16
2018-07-05T15:06:15.212Z,26.36
2018-07-05T15:08:55.251Z,26.49
2018-07-05T15:11:35.219Z,26.60
2018-07-05T15:14:15.168Z,26.72
2018-07-05T15:16:55.168Z,26.89
2018-07-05T15:19:35.293Z,26.81
2018-07-05T15:22:15.662Z,26.75
2018-07-05T15:24:55.273Z,27.00
2018-07-05T15:27:35.239Z,26.94
2018-07-05T15:30:15.517Z,26.98
2018-07-05T15:32:55.421Z,27.16
2018-07-05T15:35:35.171Z,27.00
2018-07-05T15:38:14.994Z,27.03
2018-07-05T15:40:54.913Z,26.48
2018-07-05T15:43:35.096Z,26.42
2018-07-05T15:46:15.810Z,26.22
2018-07-05T15:48:55.963Z,26.52
2018-07-05T15:51:36.129Z,26.73
2018-07-05T15:54:15.962Z,26.74
2018-07-05T15:56:56.136Z,26.75
2018-07-05T15:59:35.876Z,26.57
2018-07-05T16:02:16.021Z,26.28
2018-07-05T16:04:55.978Z,25.80
2018-07-05T16:07:35.759Z,25.54
2018-07-05T16:10:15.785Z,25.49
2018-07-05T16:12:56.065Z,25.38
2018-07-05T16:15:35.964Z,25.17
2018-07-05T16:18:15.909Z,25.13
2018-07-05T16:20:56.103Z,25.03
2018-07-05T16:23:35.983Z,24.73
2018-07-05T16:26:16.196Z,24.66
2018-07-05T16:28:56.085Z,24.68
2018-07-05T16:31:36.367Z,24.71
2018-07-05T16:34:16.723Z,24.77
2018-07-05T16:36:56.881Z,24.81
2018-07-05T16:39:37.212Z,24.98
2018-07-05T16:42:17.063Z,25.23
2018-07-05T16:44:57.126Z,25.23
2018-07-05T16:47:36.897Z,25.17
2018-07-05T16:50:23.305Z,25.20
2018-07-05T16:53:03.235Z,25.17
2018-07-05T16:55:43.225Z,25.05
2018-07-05T16:58:23.667Z,25.02
2018-07-05T17:01:03.650Z,24.78
2018-07-05T17:03:43.533Z,24.75
2018-07-05T17:06:23.671Z,24.75
2018-07-05T17:09:05.461Z,24.71
2018-07-05T17:11:45.213Z,24.62
2018-07-05T17:14:25.659Z,24.57
2018-07-05T17:17:05.469Z,24.50
2018-07-05T17:19:45.666Z,24.56
2018-07-05T17:22:25.600Z,24.60
2018-07-05T17:25:05.486Z,24.45
2018-07-05T17:27:45.222Z,24.33
2018-07-05T17:30:25.294Z,24.23
2018-07-05T17:33:04.969Z,23.99
2018-07-05T17:35:44.824Z,23.75
2018-07-05T17:38:24.801Z,23.47
2018-07-05T17:41:04.704Z,23.48
2018-07-05T17:43:44.522Z,23.27
2018-07-05T17:46:24.636Z,23.24
2018-07-05T17:49:04.780Z,23.36
2018-07-05T17:51:44.731Z,23.25
2018-07-05T17:54:24.820Z,23.07
2018-07-05T17:57:04.813Z,23.07
2018-07-05T17:59:45.388Z,23.06
2018-07-05T18:02:25.284Z,22.89
2018-07-05T18:05:05.711Z,22.98
2018-07-05T18:07:46.078Z,23.01
2018-07-05T18:10:26.177Z,22.95
2018-07-05T18:13:06.086Z,22.90
2018-07-05T18:15:47.355Z,22.88
2018-07-05T18:18:27.181Z,22.68
2018-07-05T18:21:07.384Z,22.36
2018-07-05T18:23:47.599Z,22.24
2018-07-05T18:26:27.479Z,22.14
2018-07-05T18:29:07.927Z,21.96
2018-07-05T18:31:47.610Z,21.81
2018-07-05T18:34:27.881Z,21.74
2018-07-05T18:37:09.327Z,21.65
2018-07-05T18:39:49.189Z,21.32
2018-07-05T18:42:29.579Z,21.18
2018-07-05T18:45:10.026Z,21.12
2018-07-05T18:47:50.026Z,21.10
2018-07-05T18:50:29.864Z,21.12
2018-07-05T18:53:09.646Z,21.17
2018-07-05T18:55:49.746Z,21.18
2018-07-05T18:58:29.751Z,21.19
2018-07-05T19:01:09.740Z,21.06
2018-07-05T19:03:50.230Z,20.90
2018-07-05T19:06:30.015Z,20.72
2018-07-05T19:09:09.864Z,20.63
2018-07-05T19:11:49.767Z,20.61
2018-07-05T19:14:29.420Z,20.45
2018-07-05T19:17:09.653Z,20.38
2018-07-05T19:19:49.576Z,20.29
2018-07-05T19:22:29.893Z,20.32
2018-07-05T19:25:09.835Z,20.31
2018-07-05T19:27:49.944Z,20.31
2018-07-05T19:30:30.097Z,20.33
2018-07-05T19:33:12.546Z,20.40
2018-07-05T19:35:52.251Z,20.40
2018-07-05T19:38:32.724Z,20.37
2018-07-05T19:41:12.822Z,20.29
2018-07-05T19:43:53.010Z,20.27
2018-07-05T19:46:33.787Z,20.26
2018-07-05T19:49:13.435Z,20.19
2018-07-05T19:51:53.663Z,20.19
2018-07-05T19:54:33.418Z,20.18
2018-07-05T19:57:13.381Z,20.18
2018-07-05T19:59:53.182Z,20.12
2018-07-05T20:02:33.479Z,20.00
2018-07-05T20:05:13.533Z,19.92
2018-07-05T20:07:53.494Z,19.76
2018-07-05T20:10:33.434Z,19.76
2018-07-05T20:13:13.742Z,19.69
2018-07-05T20:15:53.864Z,19.66
2018-07-05T20:18:33.766Z,19.72
2018-07-05T20:21:13.506Z,19.67
2018-07-05T20:23:53.620Z,19.60
2018-07-05T20:26:33.626Z,19.57
2018-07-05T20:29:13.462Z,19.41
2018-07-05T20:31:53.359Z,19.28
2018-07-05T20:34:33.391Z,19.28
2018-07-05T20:37:13.253Z,19.32
2018-07-05T20:39:53.309Z,19.39
2018-07-05T20:42:33.173Z,19.43
2018-07-05T20:45:13.031Z,19.46
2018-07-05T20:47:53.133Z,19.43
2018-07-05T20:50:33.037Z,19.44
2018-07-05T20:53:12.885Z,19.49
2018-07-05T20:55:52.770Z,19.54
2018-07-05T20:58:33.018Z,19.57
2018-07-05T21:01:12.758Z,19.54
2018-07-05T21:03:52.465Z,19.50
2018-07-05T21:06:32.273Z,19.51
2018-07-05T21:09:12.148Z,19.53
2018-07-05T21:11:52.095Z,19.47
2018-07-05T21:14:32.252Z,19.43
2018-07-05T21:17:12.098Z,19.36
2018-07-05T21:19:52.032Z,19.34
2018-07-05T21:22:32.212Z,19.30
2018-07-05T21:25:12.139Z,19.28
2018-07-05T21:27:52.324Z,19.23
2018-07-05T21:30:32.185Z,19.26
2018-07-05T21:33:12.332Z,19.27
2018-07-05T21:35:52.643Z,19.28
2018-07-05T21:38:33.065Z,19.31
2018-07-05T21:41:13.140Z,19.23
2018-07-05T21:43:52.869Z,19.17
2018-07-05T21:46:33.059Z,19.14
2018-07-05T21:49:12.792Z,19.15
2018-07-05T21:51:52.552Z,19.12
2018-07-05T21:54:32.860Z,19.11
2018-07-05T21:57:12.930Z,19.07
2018-07-05T21:59:53.003Z,18.98
2018-07-05T22:02:32.833Z,18.97
2018-07-05T22:05:12.995Z,18.99
2018-07-05T22:07:54.032Z,18.92
2018-07-05T22:10:33.740Z,18.90
2018-07-05T22:13:13.777Z,18.87
2018-07-05T22:15:53.635Z,18.75
2018-07-05T22:18:38.897Z,18.69
2018-07-05T22:21:18.693Z,18.67
2018-07-05T22:24:03.935Z,18.61
2018-07-05T22:26:48.168Z,18.64
2018-07-05T22:29:33.593Z,18.61
2018-07-05T22:32:13.486Z,18.60
2018-07-05T22:34:53.313Z,18.63
2018-07-05T22:37:33.835Z,18.62
2018-07-05T22:40:13.622Z,18.65
2018-07-05T22:42:53.833Z,18.64
2018-07-05T22:45:33.771Z,18.58
2018-07-05T22:48:13.862Z,18.54
2018-07-05T22:50:53.721Z,18.54
2018-07-05T22:53:33.854Z,18.53
2018-07-05T22:56:13.690Z,18.53
2018-07-05T22:58:53.499Z,18.53
2018-07-05T23:01:33.448Z,18.46
2018-07-05T23:04:13.687Z,18.48
2018-07-05T23:06:53.884Z,18.40
2018-07-05T23:09:33.700Z,18.36
2018-07-05T23:12:13.514Z,18.37
2018-07-05T23:14:54.096Z,18.39
2018-07-05T23:17:33.750Z,18.38
2018-07-05T23:20:13.738Z,18.40
2018-07-05T23:22:53.851Z,18.46
2018-07-05T23:25:33.916Z,18.45
2018-07-05T23:28:14.014Z,18.44
2018-07-05T23:30:53.758Z,18.41
2018-07-05T23:33:33.624Z,18.39
2018-07-05T23:36:13.879Z,18.39
2018-07-05T23:38:53.748Z,18.38
2018-07-05T23:41:33.863Z,18.36
2018-07-05T23:44:14.126Z,18.39
2018-07-05T23:46:54.251Z,18.40
2018-07-05T23:49:34.473Z,18.36
2018-07-05T23:52:14.685Z,18.36
2018-07-05T23:54:55.068Z,18.36
2018-07-05T23:57:34.883Z,18.35
